createdAt,value
2023-01-26T00:00:07.053Z,96563.16
2023-01-26T00:01:12.755Z,96557.19
2023-01-26T00:02:14.816Z,96556.34
2023-01-26T00:03:19.818Z,96559.75
2023-01-26T00:04:22.085Z,96558.06
2023-01-26T00:05:26.857Z,96550.44
2023-01-26T00:06:28.882Z,96547.91
2023-01-26T00:07:33.575Z,96551.31
2023-01-26T00:08:37.838Z,96539.41
2023-01-26T00:09:42.642Z,96542.81
2023-01-26T00:10:50.607Z,96536.03
2023-01-26T00:11:55.251Z,96538.59
2023-01-26T00:12:57.551Z,96533.47
2023-01-26T00:14:03.902Z,96529.22
2023-01-26T00:15:07.394Z,96536.84
2023-01-26T00:16:14.622Z,96532.59
2023-01-26T00:17:26.153Z,96536.84
2023-01-26T00:18:30.781Z,96530.06
2023-01-26T00:19:32.839Z,96533.44
2023-01-26T00:20:37.374Z,96530.06
2023-01-26T00:21:39.469Z,96536.00
2023-01-26T00:22:44.287Z,96523.28
2023-01-26T00:23:47.635Z,96521.59
2023-01-26T00:24:52.286Z,96530.06
2023-01-26T00:25:57.220Z,96527.50
2023-01-26T00:27:01.883Z,96523.28
2023-01-26T00:28:03.954Z,96521.59
2023-01-26T00:29:08.540Z,96521.59
2023-01-26T00:30:11.278Z,96511.41
2023-01-26T00:31:18.362Z,96516.50
2023-01-26T00:32:20.684Z,96517.34
2023-01-26T00:33:25.438Z,96513.09
2023-01-26T00:34:27.704Z,96505.47
2023-01-26T00:35:32.462Z,96508.84
2023-01-26T00:36:36.370Z,96508.00
2023-01-26T00:37:41.161Z,96506.31
2023-01-26T00:38:43.224Z,96497.81
2023-01-26T00:39:48.245Z,96491.88
2023-01-26T00:40:50.683Z,96491.88
2023-01-26T00:42:10.095Z,96486.81
2023-01-26T00:43:12.180Z,96484.28
2023-01-26T00:44:16.771Z,96489.38
2023-01-26T00:45:18.842Z,96484.25
2023-01-26T00:46:23.541Z,96490.19
2023-01-26T00:47:28.143Z,96489.38
2023-01-26T00:48:30.108Z,96486.81
2023-01-26T00:49:34.742Z,96484.28
2023-01-26T00:50:36.960Z,96486.81
2023-01-26T00:51:41.762Z,96479.19
2023-01-26T00:52:43.801Z,96487.66
2023-01-26T00:53:48.490Z,96485.97
2023-01-26T00:54:50.526Z,96482.56
2023-01-26T00:55:58.170Z,96484.28
2023-01-26T00:57:02.938Z,96488.50
2023-01-26T00:58:09.547Z,96483.44
2023-01-26T00:59:12.283Z,96484.28
2023-01-26T01:00:17.801Z,96485.13
2023-01-26T01:01:19.857Z,96487.66
2023-01-26T01:02:24.700Z,96477.50
2023-01-26T01:03:26.811Z,96477.50
2023-01-26T01:04:32.747Z,96468.16
2023-01-26T01:05:35.300Z,96478.31
2023-01-26T01:06:40.092Z,96475.78
2023-01-26T01:07:42.165Z,96475.78
2023-01-26T01:08:47.043Z,96479.19
2023-01-26T01:09:49.009Z,96476.63
2023-01-26T01:10:53.542Z,96475.78
2023-01-26T01:11:55.657Z,96480.03
2023-01-26T01:13:02.948Z,96476.63
2023-01-26T01:14:05.095Z,96482.59
2023-01-26T01:15:11.443Z,96470.72
2023-01-26T01:16:15.705Z,96476.66
2023-01-26T01:17:20.425Z,96469.84
2023-01-26T01:18:22.415Z,96463.06
2023-01-26T01:19:27.675Z,96470.72
2023-01-26T01:20:30.039Z,96469.00
2023-01-26T01:21:36.541Z,96463.06
2023-01-26T01:22:38.718Z,96465.59
2023-01-26T01:23:44.054Z,96463.91
2023-01-26T01:24:46.158Z,96472.41
2023-01-26T01:25:59.017Z,96469.00
2023-01-26T01:27:01.022Z,96471.53
2023-01-26T01:28:08.531Z,96464.75
2023-01-26T01:29:13.292Z,96465.63
2023-01-26T01:30:18.179Z,96457.97
2023-01-26T01:31:20.528Z,96457.97
2023-01-26T01:32:25.450Z,96457.13
2023-01-26T01:33:27.664Z,96453.75
2023-01-26T01:34:32.950Z,96457.97
2023-01-26T01:35:36.042Z,96457.13
2023-01-26T01:36:40.838Z,96459.69
2023-01-26T01:37:42.827Z,96461.34
2023-01-26T01:38:50.408Z,96457.94
2023-01-26T01:39:52.369Z,96457.94
2023-01-26T01:40:58.063Z,96458.81
2023-01-26T01:42:02.820Z,96457.09
2023-01-26T01:43:11.943Z,96457.13
2023-01-26T01:44:21.557Z,96453.72
2023-01-26T01:45:39.337Z,96456.28
2023-01-26T01:46:50.207Z,96452.03
2023-01-26T01:47:53.447Z,96455.41
2023-01-26T01:49:05.112Z,96454.56
2023-01-26T01:50:15.520Z,96453.72
2023-01-26T01:51:24.351Z,96451.16
2023-01-26T01:52:30.023Z,96448.66
2023-01-26T01:53:38.924Z,96454.56
2023-01-26T01:54:44.959Z,96454.59
2023-01-26T01:58:15.192Z,96452.03
2023-01-26T01:59:21.520Z,96448.63
2023-01-26T02:00:27.587Z,96453.72
2023-01-26T02:01:30.161Z,96449.47
2023-01-26T02:02:35.098Z,96446.94
2023-01-26T02:03:38.118Z,96444.41
2023-01-26T02:04:43.311Z,96453.72
2023-01-26T02:05:53.449Z,96452.88
2023-01-26T02:07:02.434Z,96443.56
2023-01-26T02:08:05.711Z,96436.75
2023-01-26T02:09:31.883Z,96439.31
2023-01-26T02:10:33.964Z,96440.16
2023-01-26T02:11:44.994Z,96437.59
2023-01-26T02:12:49.069Z,96444.41
2023-01-26T02:13:57.638Z,96435.06
2023-01-26T02:15:01.559Z,96437.63
2023-01-26T02:16:06.893Z,96435.91
2023-01-26T02:17:09.726Z,96440.13
2023-01-26T02:18:16.551Z,96434.22
2023-01-26T02:19:27.645Z,96435.06
2023-01-26T02:20:40.582Z,96435.06
2023-01-26T02:21:45.357Z,96436.78
2023-01-26T02:22:57.409Z,96426.59
2023-01-26T02:24:10.680Z,96432.50
2023-01-26T02:25:27.282Z,96431.66
2023-01-26T02:26:34.266Z,96431.66
2023-01-26T02:27:40.235Z,96427.44
2023-01-26T02:28:44.384Z,96424.88
2023-01-26T02:29:49.400Z,96420.63
2023-01-26T02:30:54.203Z,96417.25
2023-01-26T02:31:59.642Z,96421.47
2023-01-26T02:33:01.895Z,96419.81
2023-01-26T02:34:06.755Z,96415.53
2023-01-26T02:35:09.723Z,96412.16
2023-01-26T02:36:21.399Z,96411.31
2023-01-26T02:37:23.779Z,96414.69
2023-01-26T02:38:33.274Z,96407.91
2023-01-26T02:39:47.556Z,96401.97
2023-01-26T02:40:54.381Z,96400.31
2023-01-26T02:42:14.311Z,96398.59
2023-01-26T02:43:19.253Z,96391.81
2023-01-26T02:44:27.039Z,96387.53
2023-01-26T02:45:34.178Z,96385.84
2023-01-26T02:46:36.388Z,96380.75
2023-01-26T02:47:41.368Z,96379.06
2023-01-26T02:48:58.390Z,96385.00
2023-01-26T02:50:00.764Z,96384.16
2023-01-26T02:51:02.971Z,96389.28
2023-01-26T02:52:07.903Z,96372.28
2023-01-26T02:53:12.624Z,96381.63
2023-01-26T02:54:34.677Z,96378.25
2023-01-26T02:55:36.689Z,96368.91
2023-01-26T02:56:43.022Z,96374.00
2023-01-26T02:57:47.807Z,96368.91
2023-01-26T02:58:53.129Z,96373.97
2023-01-26T02:59:55.358Z,96362.97
2023-01-26T03:01:00.169Z,96367.22
2023-01-26T03:02:02.590Z,96364.66
2023-01-26T03:03:15.194Z,96364.69
2023-01-26T03:04:17.241Z,96362.16
2023-01-26T03:05:22.192Z,96363.00
2023-01-26T03:06:24.313Z,96368.91
2023-01-26T03:07:29.364Z,96368.06
2023-01-26T03:08:31.464Z,96365.50
2023-01-26T03:09:36.157Z,96365.50
2023-01-26T03:10:38.405Z,96375.69
2023-01-26T03:11:44.871Z,96373.16
2023-01-26T03:12:49.577Z,96362.16
2023-01-26T03:13:54.190Z,96369.75
2023-01-26T03:15:11.408Z,96369.75
2023-01-26T03:16:18.486Z,96366.38
2023-01-26T03:17:20.505Z,96368.91
2023-01-26T03:18:38.956Z,96375.69
2023-01-26T03:19:55.960Z,96374.00
2023-01-26T03:21:29.779Z,96375.69
2023-01-26T03:22:46.829Z,96378.25
2023-01-26T03:24:04.258Z,96378.22
2023-01-26T03:25:21.858Z,96377.38
2023-01-26T03:26:39.386Z,96382.47
2023-01-26T03:27:46.542Z,96381.63
2023-01-26T03:28:51.388Z,96375.69
2023-01-26T03:29:56.443Z,96376.53
2023-01-26T03:31:01.462Z,96374.84
2023-01-26T03:32:03.719Z,96382.47
2023-01-26T03:33:08.396Z,96383.31
2023-01-26T03:34:10.660Z,96388.41
2023-01-26T03:35:15.774Z,96383.31
2023-01-26T03:36:17.864Z,96385.88
2023-01-26T03:37:23.039Z,96381.63
2023-01-26T03:38:25.112Z,96383.31
2023-01-26T03:39:42.403Z,96384.19
2023-01-26T03:40:59.424Z,96378.22
2023-01-26T03:42:17.080Z,96380.78
2023-01-26T03:43:34.195Z,96381.63
2023-01-26T03:44:53.991Z,96377.38
2023-01-26T03:46:11.123Z,96377.38
2023-01-26T03:47:28.279Z,96378.25
2023-01-26T03:48:45.482Z,96374.84
2023-01-26T03:50:02.521Z,96377.38
2023-01-26T03:51:20.326Z,96368.94
2023-01-26T03:52:37.488Z,96377.38
2023-01-26T03:53:54.988Z,96374.84
2023-01-26T03:55:12.107Z,96374.84
2023-01-26T03:56:23.053Z,96368.91
2023-01-26T03:57:25.034Z,96368.06
2023-01-26T03:58:30.447Z,96368.91
2023-01-26T03:59:38.454Z,96368.06
2023-01-26T04:00:45.774Z,96363.81
2023-01-26T04:02:02.882Z,96363.81
2023-01-26T04:03:19.972Z,96372.31
2023-01-26T04:04:37.191Z,96370.59
2023-01-26T04:05:54.267Z,96369.78
2023-01-26T04:07:11.549Z,96367.22
2023-01-26T04:08:27.247Z,96370.63
2023-01-26T04:09:29.674Z,96371.47
2023-01-26T04:10:34.384Z,96371.47
2023-01-26T04:11:36.459Z,96366.38
2023-01-26T04:12:41.636Z,96374.84
2023-01-26T04:13:58.761Z,96374.00
2023-01-26T04:15:15.850Z,96375.72
2023-01-26T04:16:35.696Z,96373.16
2023-01-26T04:17:52.845Z,96366.38
2023-01-26T04:19:10.133Z,96362.13
2023-01-26T04:20:27.656Z,96362.13
2023-01-26T04:21:34.010Z,96357.88
2023-01-26T04:22:40.367Z,96349.44
2023-01-26T04:23:45.112Z,96357.03
2023-01-26T04:24:47.110Z,96356.19
2023-01-26T04:25:52.289Z,96354.50
2023-01-26T04:26:54.286Z,96350.28
2023-01-26T04:27:58.874Z,96350.25
2023-01-26T04:29:02.057Z,96352.78
2023-01-26T04:30:07.731Z,96351.09
2023-01-26T04:31:09.752Z,96348.56
2023-01-26T04:32:17.303Z,96344.34
2023-01-26T04:33:19.366Z,96346.88
2023-01-26T04:34:24.030Z,96349.41
2023-01-26T04:35:26.181Z,96348.56
2023-01-26T04:36:31.633Z,96347.72
2023-01-26T04:37:36.888Z,96343.47
2023-01-26T04:38:38.884Z,96345.19
2023-01-26T04:39:43.712Z,96350.28
2023-01-26T04:40:45.705Z,96345.16
2023-01-26T04:41:50.372Z,96353.66
2023-01-26T04:42:52.359Z,96348.56
2023-01-26T04:43:56.929Z,96347.72
2023-01-26T04:44:58.880Z,96347.72
2023-01-26T04:46:05.732Z,96348.56
2023-01-26T04:47:07.897Z,96345.19
2023-01-26T04:48:14.973Z,96340.94
2023-01-26T04:49:16.946Z,96343.47
2023-01-26T04:50:21.703Z,96334.16
2023-01-26T04:51:23.722Z,96338.41
2023-01-26T04:52:28.427Z,96342.63
2023-01-26T04:53:31.895Z,96343.47
2023-01-26T04:54:36.652Z,96340.94
2023-01-26T04:55:38.778Z,96333.31
2023-01-26T04:56:43.519Z,96348.56
2023-01-26T04:57:45.560Z,96336.69
2023-01-26T04:58:50.194Z,96340.09
2023-01-26T04:59:52.185Z,96332.47
2023-01-26T05:00:57.817Z,96338.41
2023-01-26T05:02:00.175Z,96339.22
2023-01-26T05:03:04.976Z,96340.09
2023-01-26T05:04:12.927Z,96333.31
2023-01-26T05:05:17.726Z,96331.63
2023-01-26T05:06:19.844Z,96340.09
2023-01-26T05:07:24.755Z,96336.69
2023-01-26T05:08:26.837Z,96335.00
2023-01-26T05:09:31.592Z,96340.09
2023-01-26T05:10:33.813Z,96346.00
2023-01-26T05:11:38.620Z,96346.03
2023-01-26T05:12:42.878Z,96339.25
2023-01-26T05:13:47.616Z,96340.09
2023-01-26T05:14:49.583Z,96333.31
2023-01-26T05:15:54.348Z,96338.41
2023-01-26T05:16:56.472Z,96341.78
2023-01-26T05:18:01.573Z,96338.41
2023-01-26T05:19:03.743Z,96341.78
2023-01-26T05:20:13.361Z,96336.72
2023-01-26T05:21:15.552Z,96338.41
2023-01-26T05:22:20.250Z,96341.78
2023-01-26T05:23:22.619Z,96345.19
2023-01-26T05:24:27.366Z,96340.09
2023-01-26T05:25:29.511Z,96340.09
2023-01-26T05:26:34.236Z,96341.78
2023-01-26T05:27:36.835Z,96339.25
2023-01-26T05:28:41.531Z,96337.53
2023-01-26T05:29:43.551Z,96341.78
2023-01-26T05:30:48.284Z,96340.09
2023-01-26T05:31:50.508Z,96344.31
2023-01-26T05:32:55.134Z,96335.88
2023-01-26T05:33:57.118Z,96341.78
2023-01-26T05:35:02.084Z,96346.03
2023-01-26T05:36:08.636Z,96345.19
2023-01-26T05:37:14.957Z,96345.19
2023-01-26T05:38:20.689Z,96340.94
2023-01-26T05:39:22.687Z,96346.03
2023-01-26T05:40:27.710Z,96344.34
2023-01-26T05:41:29.906Z,96341.81
2023-01-26T05:42:34.595Z,96346.00
2023-01-26T05:43:36.718Z,96344.34
2023-01-26T05:44:41.697Z,96346.00
2023-01-26T05:45:44.232Z,96341.81
2023-01-26T05:46:48.858Z,96345.16
2023-01-26T05:47:51.043Z,96346.88
2023-01-26T05:48:56.132Z,96346.88
2023-01-26T05:49:58.152Z,96349.41
2023-01-26T05:51:04.050Z,96349.41
2023-01-26T05:52:12.406Z,96344.34
2023-01-26T05:53:17.031Z,96339.22
2023-01-26T05:54:19.155Z,96345.19
2023-01-26T05:55:24.103Z,96341.78
2023-01-26T05:56:26.083Z,96342.63
2023-01-26T05:57:30.769Z,96349.44
2023-01-26T05:58:32.926Z,96344.34
2023-01-26T05:59:37.940Z,96340.94
2023-01-26T06:00:39.979Z,96338.41
2023-01-26T06:01:45.293Z,96342.63
2023-01-26T06:02:48.646Z,96338.41
2023-01-26T06:03:53.945Z,96344.34
2023-01-26T06:04:55.970Z,96346.88
2023-01-26T06:06:00.616Z,96346.88
2023-01-26T06:07:02.925Z,96349.44
2023-01-26T06:08:10.577Z,96346.03
2023-01-26T06:09:12.812Z,96350.28
2023-01-26T06:10:17.962Z,96342.63
2023-01-26T06:11:20.169Z,96351.13
2023-01-26T06:12:25.672Z,96343.47
2023-01-26T06:13:27.812Z,96356.22
2023-01-26T06:14:33.231Z,96357.03
2023-01-26T06:15:38.429Z,96351.97
2023-01-26T06:16:41.028Z,96349.41
2023-01-26T06:17:45.828Z,96352.81
2023-01-26T06:18:48.636Z,96353.66
2023-01-26T06:19:54.505Z,96350.28
2023-01-26T06:21:01.973Z,96351.13
2023-01-26T06:22:04.497Z,96353.63
2023-01-26T06:23:12.704Z,96351.97
2023-01-26T06:24:14.896Z,96346.88
2023-01-26T06:25:20.897Z,96351.13
2023-01-26T06:26:24.648Z,96346.88
2023-01-26T06:27:30.045Z,96346.03
2023-01-26T06:28:32.200Z,96348.56
2023-01-26T06:29:37.047Z,96351.97
2023-01-26T06:30:42.099Z,96351.09
2023-01-26T06:31:44.440Z,96348.56
2023-01-26T06:32:50.854Z,96347.72
2023-01-26T06:33:55.466Z,96348.56
2023-01-26T06:34:57.540Z,96351.09
2023-01-26T06:36:04.924Z,96351.97
2023-01-26T06:37:07.968Z,96350.28
2023-01-26T06:38:15.450Z,96351.09
2023-01-26T06:39:17.795Z,96351.97
2023-01-26T06:40:23.003Z,96352.81
2023-01-26T06:41:25.329Z,96354.50
2023-01-26T06:42:30.237Z,96353.63
2023-01-26T06:43:32.730Z,96351.97
2023-01-26T06:44:37.426Z,96352.81
2023-01-26T06:45:39.414Z,96349.44
2023-01-26T06:46:44.037Z,96347.72
2023-01-26T06:47:46.499Z,96343.47
2023-01-26T06:48:51.107Z,96347.72
2023-01-26T06:49:53.262Z,96348.56
2023-01-26T06:51:02.137Z,96349.41
2023-01-26T06:52:05.484Z,96351.94
2023-01-26T06:53:28.993Z,96355.34
2023-01-26T06:54:33.538Z,96348.56
2023-01-26T06:55:38.563Z,96351.97
2023-01-26T06:56:43.391Z,96341.75
2023-01-26T06:57:45.345Z,96351.09
2023-01-26T06:58:49.901Z,96353.63
2023-01-26T06:59:54.564Z,96349.41
2023-01-26T07:00:57.731Z,96353.66
2023-01-26T07:02:02.465Z,96348.56
2023-01-26T07:03:04.532Z,96357.88
2023-01-26T07:04:09.459Z,96350.28
2023-01-26T07:05:14.108Z,96351.09
2023-01-26T07:06:16.147Z,96366.38
2023-01-26T07:07:20.981Z,96348.56
2023-01-26T07:08:25.675Z,96361.28
2023-01-26T07:09:30.829Z,96350.28
2023-01-26T07:10:35.817Z,96355.34
2023-01-26T07:11:41.373Z,96358.72
2023-01-26T07:12:45.924Z,96354.50
2023-01-26T07:13:50.714Z,96355.34
2023-01-26T07:14:55.752Z,96353.66
2023-01-26T07:16:01.494Z,96358.72
2023-01-26T07:17:06.695Z,96357.03
2023-01-26T07:18:09.146Z,96355.34
2023-01-26T07:19:13.899Z,96353.66
2023-01-26T07:20:16.567Z,96356.22
2023-01-26T07:21:23.158Z,96357.03
2023-01-26T07:22:27.829Z,96348.59
2023-01-26T07:23:34.657Z,96351.13
2023-01-26T07:24:39.650Z,96351.13
2023-01-26T07:25:43.733Z,96354.50
2023-01-26T07:26:48.551Z,96357.03
2023-01-26T07:27:58.615Z,96360.44
2023-01-26T07:29:03.436Z,96356.22
2023-01-26T07:30:07.485Z,96355.34
2023-01-26T07:31:14.188Z,96358.72
2023-01-26T07:32:16.325Z,96361.28
2023-01-26T07:33:21.582Z,96355.34
2023-01-26T07:34:26.543Z,96362.97
2023-01-26T07:35:29.896Z,96360.44
2023-01-26T07:36:34.962Z,96362.13
2023-01-26T07:37:37.009Z,96365.50
2023-01-26T07:38:45.374Z,96358.72
2023-01-26T07:39:49.246Z,96360.44
2023-01-26T07:40:54.472Z,96350.25
2023-01-26T07:41:56.630Z,96359.59
2023-01-26T07:43:02.003Z,96362.13
2023-01-26T07:44:08.568Z,96360.44
2023-01-26T07:45:11.419Z,96360.41
2023-01-26T07:46:16.187Z,96373.13
2023-01-26T07:47:20.140Z,96366.38
2023-01-26T07:48:29.983Z,96362.13
2023-01-26T07:49:34.948Z,96365.50
2023-01-26T07:50:40.013Z,96362.13
2023-01-26T07:51:44.911Z,96361.25
2023-01-26T07:52:47.094Z,96359.56
2023-01-26T07:53:54.533Z,96357.84
2023-01-26T07:54:56.739Z,96360.44
2023-01-26T07:56:09.691Z,96355.34
2023-01-26T07:57:15.212Z,96360.44
2023-01-26T07:58:18.781Z,96357.03
2023-01-26T07:59:24.112Z,96360.41
2023-01-26T08:00:26.299Z,96356.19
2023-01-26T08:01:31.148Z,96358.72
2023-01-26T08:02:33.509Z,96351.09
2023-01-26T08:03:38.887Z,96351.91
2023-01-26T08:04:43.940Z,96353.63
2023-01-26T08:05:47.408Z,96350.22
2023-01-26T08:06:54.054Z,96348.50
2023-01-26T08:07:58.612Z,96346.81
2023-01-26T08:09:06.495Z,96346.84
2023-01-26T08:10:11.108Z,96346.84
2023-01-26T08:11:16.068Z,96347.69
2023-01-26T08:12:18.404Z,96341.75
2023-01-26T08:13:34.404Z,96351.09
2023-01-26T08:14:46.834Z,96348.53
2023-01-26T08:15:49.307Z,96343.47
2023-01-26T08:16:54.321Z,96340.91
2023-01-26T08:17:59.319Z,96342.59
2023-01-26T08:19:04.180Z,96337.50
2023-01-26T08:20:07.394Z,96342.59
2023-01-26T08:21:12.828Z,96340.03
2023-01-26T08:22:14.850Z,96329.03
2023-01-26T08:23:19.605Z,96333.25
2023-01-26T08:24:28.208Z,96336.66
2023-01-26T08:25:30.238Z,96340.06
2023-01-26T08:26:36.026Z,96343.44
2023-01-26T08:27:38.085Z,96342.59
2023-01-26T08:28:43.630Z,96335.81
2023-01-26T08:29:45.930Z,96337.53
2023-01-26T08:30:50.612Z,96333.25
2023-01-26T08:31:53.707Z,96335.81
2023-01-26T08:32:58.613Z,96334.94
2023-01-26T08:34:03.425Z,96329.84
2023-01-26T08:35:07.705Z,96332.41
2023-01-26T08:36:16.007Z,96336.63
2023-01-26T08:37:21.560Z,96339.19
2023-01-26T08:38:26.495Z,96334.09
2023-01-26T08:39:33.826Z,96340.03
2023-01-26T08:40:35.852Z,96334.94
2023-01-26T08:41:40.488Z,96329.84
2023-01-26T08:42:45.211Z,96334.94
2023-01-26T08:43:50.352Z,96331.53
2023-01-26T08:44:55.218Z,96333.22
2023-01-26T08:46:00.480Z,96333.22
2023-01-26T08:47:05.794Z,96323.03
2023-01-26T08:48:10.429Z,96321.34
2023-01-26T08:49:15.454Z,96326.44
2023-01-26T08:50:17.949Z,96333.19
2023-01-26T08:51:22.604Z,96326.38
2023-01-26T08:52:27.400Z,96324.69
2023-01-26T08:53:34.013Z,96321.28
2023-01-26T08:54:41.528Z,96316.19
2023-01-26T08:55:46.133Z,96322.13
2023-01-26T08:56:48.102Z,96325.53
2023-01-26T08:57:55.756Z,96328.91
2023-01-26T08:58:57.854Z,96325.53
2023-01-26T09:00:02.583Z,96321.25
2023-01-26T09:01:08.558Z,96317.00
2023-01-26T09:02:13.655Z,96316.19
2023-01-26T09:03:18.371Z,96321.25
2023-01-26T09:04:23.011Z,96311.88
2023-01-26T09:05:25.111Z,96315.28
2023-01-26T09:06:30.723Z,96321.19
2023-01-26T09:07:32.910Z,96319.50
2023-01-26T09:08:38.064Z,96312.66
2023-01-26T09:09:46.089Z,96310.16
2023-01-26T09:10:50.877Z,96316.06
2023-01-26T09:11:55.589Z,96315.22
2023-01-26T09:13:01.224Z,96316.03
2023-01-26T09:14:06.006Z,96309.22
2023-01-26T09:15:09.369Z,96312.63
2023-01-26T09:16:19.769Z,96310.91
2023-01-26T09:17:24.433Z,96311.78
2023-01-26T09:18:29.412Z,96312.56
2023-01-26T09:19:34.169Z,96317.66
2023-01-26T09:20:40.432Z,96313.41
2023-01-26T09:21:45.017Z,96316.78
2023-01-26T09:22:50.774Z,96316.75
2023-01-26T09:23:55.620Z,96317.59
2023-01-26T09:25:03.043Z,96317.72
2023-01-26T09:26:05.314Z,96326.25
2023-01-26T09:27:10.061Z,96325.41
2023-01-26T09:28:13.326Z,96319.41
2023-01-26T09:29:18.853Z,96327.06
2023-01-26T09:30:21.185Z,96322.00
2023-01-26T09:31:25.981Z,96322.81
2023-01-26T09:32:28.215Z,96324.44
2023-01-26T09:33:32.916Z,96326.16
2023-01-26T09:34:37.793Z,96327.94
2023-01-26T09:35:39.803Z,96328.00
2023-01-26T09:36:44.659Z,96325.41
2023-01-26T09:37:49.319Z,96322.84
2023-01-26T09:38:54.626Z,96329.56
2023-01-26T09:40:02.112Z,96333.88
2023-01-26T09:41:07.969Z,96343.22
2023-01-26T09:42:28.465Z,96327.97
2023-01-26T09:43:41.750Z,96333.06
2023-01-26T09:44:52.554Z,96327.97
2023-01-26T09:46:06.596Z,96329.69
2023-01-26T09:47:20.890Z,96333.03
2023-01-26T09:48:35.702Z,96329.63
2023-01-26T09:49:49.823Z,96333.91
2023-01-26T09:51:00.577Z,96335.69
2023-01-26T09:52:09.357Z,96337.34
2023-01-26T09:53:21.221Z,96335.59
2023-01-26T09:54:34.109Z,96336.44
2023-01-26T09:55:44.522Z,96331.31
2023-01-26T09:56:49.699Z,96328.75
2023-01-26T09:58:00.106Z,96335.53
2023-01-26T09:59:14.517Z,96329.53
2023-01-26T10:00:25.689Z,96331.25
2023-01-26T10:01:39.173Z,96326.94
2023-01-26T10:02:56.436Z,96321.03
2023-01-26T10:04:07.188Z,96324.41
2023-01-26T10:05:19.776Z,96332.06
2023-01-26T10:06:29.156Z,96324.34
2023-01-26T10:07:33.960Z,96326.06
2023-01-26T10:08:36.185Z,96325.16
2023-01-26T10:09:45.206Z,96321.81
2023-01-26T10:10:57.539Z,96317.59
2023-01-26T10:12:04.063Z,96322.59
2023-01-26T10:13:06.217Z,96324.34
2023-01-26T10:14:17.487Z,96320.16
2023-01-26T10:15:31.457Z,96325.25
2023-01-26T10:16:37.164Z,96320.97
2023-01-26T10:17:42.003Z,96333.84
2023-01-26T10:18:56.041Z,96331.38
2023-01-26T10:20:07.788Z,96326.28
2023-01-26T10:21:15.775Z,96335.56
2023-01-26T10:22:25.444Z,96332.16
2023-01-26T10:23:32.110Z,96333.00
2023-01-26T10:24:37.059Z,96330.56
2023-01-26T10:25:41.435Z,96330.50
2023-01-26T10:26:49.387Z,96334.78
2023-01-26T10:27:54.165Z,96326.28
2023-01-26T10:28:58.924Z,96329.69
2023-01-26T10:30:03.534Z,96327.16
2023-01-26T10:31:12.812Z,96339.88
2023-01-26T10:32:20.031Z,96333.09
2023-01-26T10:33:27.635Z,96334.84
2023-01-26T10:34:33.121Z,96334.88
2023-01-26T10:35:35.136Z,96335.69
2023-01-26T10:36:39.795Z,96336.56
2023-01-26T10:37:44.420Z,96333.16
2023-01-26T10:38:50.261Z,96335.69
2023-01-26T10:40:04.031Z,96336.50
2023-01-26T10:41:11.164Z,96339.88
2023-01-26T10:42:21.951Z,96338.97
2023-01-26T10:43:28.567Z,96335.53
2023-01-26T10:44:36.539Z,96334.63
2023-01-26T10:45:48.380Z,96336.31
2023-01-26T10:47:07.921Z,96332.00
2023-01-26T10:48:21.290Z,96328.66
2023-01-26T10:49:24.450Z,96327.78
2023-01-26T10:50:29.465Z,96326.13
2023-01-26T10:51:33.482Z,96321.81
2023-01-26T10:52:38.533Z,96329.63
2023-01-26T10:53:43.143Z,96315.97
2023-01-26T10:54:48.323Z,96331.34
2023-01-26T10:56:01.364Z,96327.22
2023-01-26T10:57:08.501Z,96328.09
2023-01-26T10:58:43.259Z,96325.50
2023-01-26T10:59:54.594Z,96331.44
2023-01-26T11:00:57.111Z,96333.97
2023-01-26T11:02:05.015Z,96333.13
2023-01-26T11:03:20.425Z,96331.41
2023-01-26T11:04:23.460Z,96329.69
2023-01-26T11:05:30.168Z,96329.69
2023-01-26T11:06:33.039Z,96326.25
2023-01-26T11:07:39.744Z,96320.28
2023-01-26T11:08:44.765Z,96319.38
2023-01-26T11:09:47.720Z,96329.59
2023-01-26T11:10:57.452Z,96330.41
2023-01-26T11:12:05.906Z,96317.72
2023-01-26T11:13:13.979Z,96320.22
2023-01-26T11:14:21.170Z,96330.41
2023-01-26T11:15:29.386Z,96317.69
2023-01-26T11:16:34.848Z,96319.53
2023-01-26T11:17:43.562Z,96321.25
2023-01-26T11:18:56.674Z,96318.72
2023-01-26T11:20:10.825Z,96321.25
2023-01-26T11:21:19.374Z,96317.03
2023-01-26T11:22:28.891Z,96319.63
2023-01-26T11:23:46.163Z,96322.22
2023-01-26T11:25:01.100Z,96324.75
2023-01-26T11:26:26.994Z,96320.56
2023-01-26T11:27:43.248Z,96319.72
2023-01-26T11:28:59.232Z,96316.28
2023-01-26T11:30:26.534Z,96316.28
2023-01-26T11:31:46.046Z,96312.03
2023-01-26T11:32:56.871Z,96313.78
2023-01-26T11:34:11.179Z,96318.84
2023-01-26T11:35:22.867Z,96311.19
2023-01-26T11:36:37.840Z,96307.78
2023-01-26T11:37:53.882Z,96308.63
2023-01-26T11:39:09.398Z,96311.22
2023-01-26T11:40:33.121Z,96303.59
2023-01-26T11:41:51.711Z,96302.69
2023-01-26T11:43:29.438Z,96304.41
2023-01-26T11:44:57.519Z,96308.66
2023-01-26T11:46:18.655Z,96304.41
2023-01-26T11:47:39.069Z,96302.72
2023-01-26T11:48:54.565Z,96295.06
2023-01-26T11:50:21.937Z,96293.34
2023-01-26T11:51:36.860Z,96293.34
2023-01-26T11:52:54.275Z,96295.13
2023-01-26T11:54:22.403Z,96285.78
2023-01-26T11:55:35.175Z,96292.50
2023-01-26T11:56:51.841Z,96292.44
2023-01-26T11:58:08.237Z,96289.06
2023-01-26T11:59:17.631Z,96288.19
2023-01-26T12:00:30.607Z,96294.16
2023-01-26T12:01:42.130Z,96286.50
2023-01-26T12:02:56.672Z,96284.81
2023-01-26T12:04:01.409Z,96285.66
2023-01-26T12:05:16.848Z,96275.41
2023-01-26T12:06:28.819Z,96277.94
2023-01-26T12:07:51.634Z,96272.84
2023-01-26T12:09:02.813Z,96271.94
2023-01-26T12:10:10.355Z,96271.91
2023-01-26T12:11:25.647Z,96271.88
2023-01-26T12:12:39.842Z,96269.34
2023-01-26T12:13:50.130Z,96266.75
2023-01-26T12:14:59.951Z,96275.22
2023-01-26T12:16:09.183Z,96264.09
2023-01-26T12:17:35.092Z,96266.59
2023-01-26T12:19:01.839Z,96251.31
2023-01-26T12:20:29.180Z,96256.38
2023-01-26T12:21:36.099Z,96254.66
2023-01-26T12:22:44.197Z,96250.44
2023-01-26T12:23:56.461Z,96253.06
2023-01-26T12:25:19.414Z,96255.56
2023-01-26T12:26:39.935Z,96251.31
2023-01-26T12:27:49.471Z,96240.28
2023-01-26T12:29:09.282Z,96242.84
2023-01-26T12:30:29.235Z,96246.22
2023-01-26T12:31:39.859Z,96236.88
2023-01-26T12:32:44.714Z,96240.25
2023-01-26T12:33:56.606Z,96235.25
2023-01-26T12:35:02.256Z,96236.97
2023-01-26T12:36:23.512Z,96241.22
2023-01-26T12:37:53.936Z,96242.06
2023-01-26T12:39:15.646Z,96236.13
2023-01-26T12:40:37.524Z,96236.09
2023-01-26T12:41:49.902Z,96232.72
2023-01-26T12:43:08.909Z,96229.38
2023-01-26T12:44:28.773Z,96225.09
2023-01-26T12:45:37.435Z,96228.50
2023-01-26T12:46:48.022Z,96226.81
2023-01-26T12:47:57.747Z,96231.06
2023-01-26T12:49:15.478Z,96226.81
2023-01-26T12:50:35.621Z,96226.13
2023-01-26T12:51:45.115Z,96226.09
2023-01-26T12:52:55.422Z,96221.94
2023-01-26T12:54:03.866Z,96222.81
2023-01-26T12:55:18.308Z,96218.56
2023-01-26T12:56:27.272Z,96227.88
2023-01-26T12:57:37.119Z,96221.00
2023-01-26T12:58:45.459Z,96222.72
2023-01-26T12:59:51.516Z,96220.97
2023-01-26T13:01:03.287Z,96222.63
2023-01-26T13:02:23.121Z,96215.00
2023-01-26T13:03:33.645Z,96212.47
2023-01-26T13:04:41.479Z,96211.66
2023-01-26T13:05:59.247Z,96213.38
2023-01-26T13:07:27.567Z,96220.16
2023-01-26T13:08:54.653Z,96213.47
2023-01-26T13:10:28.103Z,96215.06
2023-01-26T13:11:48.658Z,96213.38
2023-01-26T13:12:55.356Z,96219.34
2023-01-26T13:14:00.521Z,96218.50